Latest Coastal Weather Observations for Port Fairy

IDV60701

Issued at 12:05 pm EST Sunday 21 September 2014 (issued every 10 minutes, with the page automatically refreshed every 10 minutes)

About coastal observations | Map of coastal stations | Coastal observations for VIC | Marine services | Other Formats
Station Details ID: 090175 Name: PORT FAIRY AWS Lat: -38.39 Lon: 142.23 Height: 10.0 m
Data from the previous 72 hours. | See also: Recent months at Port Fairy
Date/Time
EST
Temp

°C
Wind Pressure Rain
since 9am
mm
Weather Cloud Vis
km
Sea
Height
m
Swell
Dir
 
Speed
knots
Gust
knots
hPa Trend Height
m
Period
s
Dir
21/12:00pm 14.6 E 6 11 1032.4 - 0.0 - - - - - - -
21/11:30am 15.1 E 3 7 1032.8 - 0.0 - - - - - - -
21/11:00am 14.0 ENE 4 6 1033.0 - 0.0 - - - - - - -
21/10:30am 13.7 NE 2 5 1033.0 - 0.0 - - - - - - -
21/10:00am 13.7 E 2 5 1033.0 - 0.0 - - - - - - -
21/09:30am 12.9 NNE 3 5 1032.8 - 0.0 - - - - - - -
21/09:00am 11.7 NNE 2 4 1032.7 - 0.0 - - - - - - -
21/08:30am 9.8 N 2 3 1032.4 - 0.0 - - - - - - -
21/08:00am 7.5 N 3 4 1032.0 - 0.0 - - - - - - -
21/07:30am 5.8 N 3 4 1031.7 - 0.0 - - - - - - -
21/07:00am 4.5 N 3 4 1031.3 - 0.0 - - - - - - -
21/06:30am 4.3 N 3 5 1031.2 - 0.0 - - - - - - -
21/06:00am 4.7 N 3 4 1030.9 - 0.0 - - - - - - -
21/05:30am 5.3 N 3 4 1030.6 - 0.0 - - - - - - -
21/05:00am 5.8 N 3 4 1030.3 - 0.0 - - - - - - -
21/04:30am 6.8 NNE 3 4 1030.2 - 0.0 - - - - - - -
21/04:00am 7.9 N 3 4 1030.3 - 0.0 - - - - - - -
21/03:30am 8.5 NNE 1 4 1030.3 - 0.0 - - - - - - -
21/03:00am 8.5 N 3 4 1030.4 - 0.0 - - - - - - -
21/02:30am 9.4 N 2 3 1030.6 - 0.0 - - - - - - -
21/02:00am 11.6 E 3 7 1030.7 - 0.0 - - - - - - -
21/01:30am 11.1 SE 4 5 1030.9 - 0.0 - - - - - - -
21/01:00am 11.9 SE 5 8 1031.3 - 0.0 - - - - - - -
21/12:30am 11.9 SE 6 8 1031.3 - 0.0 - - - - - - -
21/12:00am 11.8 ESE 5 8 1031.0 - 0.0 - - - - - - -
 
Date/Time
EST
Temp

°C
Wind Pressure Rain
since 9am
mm
Weather Cloud Vis
km
Sea
Height
m
Swell
Dir
 
Speed
knots
Gust
knots
hPa Trend Height
m
Period
s
Dir
20/11:30pm 11.8 E 4 6 1031.1 - 0.0 - - - - - - -
20/11:00pm 12.2 SSE 6 9 1031.1 - 0.0 - - - - - - -
20/10:30pm 12.2 SE 5 8 1031.2 - 0.0 - - - - - - -
20/10:00pm 12.0 ESE 5 7 1031.1 - 0.0 - - - - - - -
20/09:30pm 12.2 E 4 6 1030.8 - 0.0 - - - - - - -
20/09:00pm 12.3 E 4 6 1030.7 - 0.0 - - - - - - -
20/08:30pm 12.5 SSE 6 9 1030.6 - 0.0 - - - - - - -
20/08:00pm 12.4 SE 7 11 1030.7 - 0.0 - - - - - - -
20/07:30pm 12.5 SSE 4 5 1030.6 - 0.0 - - - - - - -
20/07:00pm 12.4 SSE 6 10 1030.3 - 0.0 - - - - - - -
20/06:30pm 12.5 S 6 11 1030.0 - 0.0 - - - - - - -
20/06:00pm 12.3 SSE 6 9 1030.0 - 0.0 - - - - - - -
20/05:30pm 13.1 S 6 9 1029.8 - 0.0 - - - - - - -
20/05:00pm 13.3 S 9 13 1029.5 - 0.0 - - - - - - -
20/04:30pm 13.5 S 10 12 1029.2 - 0.0 - - - - - - -
20/04:00pm 14.1 S 7 10 1028.9 - 0.0 - - - - - - -
20/03:30pm 13.9 S 7 10 1028.8 - 0.0 - - - - - - -
20/03:00pm 13.7 S 7 10 1028.7 - 0.0 - - - - - - -
20/02:30pm 14.3 SSW 7 11 1028.8 - 0.0 - - - - - - -
20/02:00pm 15.0 S 6 8 1028.6 - 0.0 - - - - - - -
20/01:30pm 15.3 S 5 7 1028.5 - 0.0 - - - - - - -
20/01:00pm 15.0 SSW 4 7 1028.7 - 0.0 - - - - - - -
20/12:30pm 14.5 SSW 4 6 1028.8 - 0.0 - - - - - - -
20/12:00pm 14.7 SW 4 5 1028.8 - 0.0 - - - - - - -
20/11:30am 14.3 SSW 3 5 1029.0 - 0.0 - - - - - - -
20/11:00am 14.8 S 4 6 1028.9 - 0.0 - - - - - - -
20/10:30am 14.5 S 4 6 1029.0 - 0.0 - - - - - - -
20/10:00am 14.0 SSW 4 5 1029.3 - 0.0 - - - - - - -
20/09:30am 12.7 WSW 4 6 1029.2 - 0.0 - - - - - - -
20/09:00am 12.1 NW 1 2 1029.2 - 0.0 - - - - - - -
20/08:30am 10.4 NW 3 4 1029.0 - 0.0 - - - - - - -
20/08:00am 8.5 NNW 2 3 1028.7 - 0.0 - - - - - - -
20/07:30am 7.4 NNW 3 4 1028.4 - 0.0 - - - - - - -
20/07:00am 6.6 NNW 3 5 1027.9 - 0.0 - - - - - - -
20/06:30am 6.4 NNW 3 5 1027.7 - 0.0 - - - - - - -
20/06:00am 6.2 NW 3 4 1027.4 - 0.0 - - - - - - -
20/05:30am 5.9 NW 4 5 1027.0 - 0.0 - - - - - - -
20/05:00am 5.3 NW 4 5 1026.6 - 0.0 - - - - - - -
20/04:30am 4.9 NNW 4 5 1026.3 - 0.0 - - - - - - -
20/04:00am 4.1 NNW 3 4 1026.0 - 0.0 - - - - - - -
20/03:30am 4.2 NNW 3 4 1026.0 - 0.0 - - - - - - -
20/03:00am 4.6 N 3 4 1025.8 - 0.0 - - - - - - -
20/02:30am 5.6 N 3 4 1025.9 - 0.0 - - - - - - -
20/02:00am 10.4 S 4 6 1026.2 - 0.0 - - - - - - -
20/01:30am 11.2 S 6 7 1026.3 - 0.0 - - - - - - -
20/01:00am 11.5 S 7 9 1026.4 - 0.0 - - - - - - -
20/12:30am 11.3 S 6 9 1026.4 - 0.0 - - - - - - -
20/12:00am 11.7 S 7 11 1026.2 - 0.0 - - - - - - -
 
Date/Time
EST
Temp

°C
Wind Pressure Rain
since 9am
mm
Weather Cloud Vis
km
Sea
Height
m
Swell
Dir
 
Speed
knots
Gust
knots
hPa Trend Height
m
Period
s
Dir
19/11:30pm 11.3 S 6 9 1026.3 - 0.0 - - - - - - -
19/11:00pm 8.8 CALM 0 1 1026.3 - 0.0 - - - - - - -
19/10:30pm 9.8 CALM 0 0 1026.4 - 0.0 - - - - - - -
19/10:00pm 10.6 E 3 3 1026.6 - 0.0 - - - - - - -
19/09:30pm 10.6 SSE 8 12 1026.9 - 0.0 - - - - - - -
19/09:00pm 11.9 SSW 9 14 1026.6 - 0.0 - - - - - - -
19/08:30pm 12.2 SW 8 11 1026.6 - 0.0 - - - - - - -
19/08:00pm 11.7 WSW 5 7 1026.4 - 0.0 - - - - - - -
19/07:30pm 11.0 W 4 5 1026.3 - 0.0 - - - - - - -
19/07:00pm 11.3 W 3 5 1026.1 - 0.0 - - - - - - -
19/06:30pm 11.3 WSW 5 8 1026.0 - 0.0 - - - - - - -
19/06:00pm 11.3 WSW 7 11 1025.9 - 0.0 - - - - - - -
19/05:30pm 11.2 SW 6 9 1025.7 - 0.0 - - - - - - -
19/05:00pm 11.9 SW 8 14 1025.5 - 0.0 - - - - - - -
19/04:30pm 11.9 S 9 12 1025.5 - 0.0 - - - - - - -
19/04:00pm 12.8 SSW 11 15 1025.3 - 0.0 - - - - - - -
19/03:30pm 13.3 SW 11 14 1025.1 - 0.0 - - - - - - -
19/03:00pm 14.3 WSW 7 11 1025.1 - 0.0 - - - - - - -
19/02:30pm 13.0 SSW 10 14 1025.3 - 0.0 - - - - - - -
19/02:00pm 14.3 SW 11 14 1025.3 - 0.0 - - - - - - -
19/01:30pm 13.9 SW 10 12 1025.3 - 0.0 - - - - - - -
19/01:00pm 14.1 SSW 8 12 1025.5 - 0.0 - - - - - - -
19/12:30pm 14.6 SW 8 11 1025.7 - 0.0 - - - - - - -
19/12:00pm 15.2 SW 10 13 1025.9 - 0.0 - - - - - - -
19/11:30am 13.8 SW 10 13 1025.9 - 0.0 - - - - - - -
19/11:00am 13.3 SW 11 14 1026.1 - 0.0 - - - - - - -
19/10:30am 13.7 WSW 10 13 1026.2 - 0.0 - - - - - - -
19/10:00am 13.8 WSW 10 12 1026.3 - 0.0 - - - - - - -
19/09:30am 12.1 WNW 6 10 1026.3 - 0.0 - - - - - - -
19/09:00am 11.2 NW 3 5 1026.1 - 0.0 - - - - - - -
19/08:30am 8.6 NNW 3 5 1026.0 - 0.0 - - - - - - -
19/08:00am 7.3 NNW 4 7 1025.9 - 0.0 - - - - - - -
19/07:30am 7.2 NNW 4 5 1025.7 - 0.0 - - - - - - -
19/07:00am 7.1 NNW 4 6 1025.5 - 0.0 - - - - - - -
19/06:30am 6.2 NW 3 5 1025.3 - 0.0 - - - - - - -
19/06:00am 6.3 NW 3 5 1025.2 - 0.0 - - - - - - -
19/05:30am 6.0 NW 4 7 1025.0 - 0.0 - - - - - - -
19/05:00am 6.2 NNW 3 6 1024.8 - 0.0 - - - - - - -
19/04:30am 6.5 NNW 3 5 1024.7 - 0.0 - - - - - - -
19/04:00am 6.9 NNW 3 4 1024.7 - 0.0 - - - - - - -
19/03:30am 7.2 NNW 3 4 1024.6 - 0.0 - - - - - - -
19/03:00am 8.5 W 5 11 1024.8 - 0.0 - - - - - - -
19/02:30am 6.1 NNW 3 5 1025.0 - 0.0 - - - - - - -
19/02:00am 6.2 NW 4 5 1025.1 - 0.0 - - - - - - -
19/01:30am 7.0 NW 3 5 1025.4 - 0.0 - - - - - - -
19/01:00am 7.2 NNW 3 6 1025.5 - 0.0 - - - - - - -
19/12:30am 6.7 NNW 2 4 1025.5 - 0.0 - - - - - - -
19/12:00am 6.5 NW 4 5 1025.6 - 0.0 - - - - - - -
 
Date/Time
EST
Temp

°C
Wind Pressure Rain
since 9am
mm
Weather Cloud Vis
km
Sea
Height
m
Swell
Dir
 
Speed
knots
Gust
knots
hPa Trend Height
m
Period
s
Dir
18/11:30pm 7.3 NNW 2 3 1025.8 - 0.0 - - - - - - -
18/11:00pm 10.9 SW 6 8 1026.0 - 0.0 - - - - - - -
18/10:30pm 10.9 SW 6 8 1026.1 - 0.0 - - - - - - -
18/10:00pm 11.1 SW 6 9 1026.1 - 0.0 - - - - - - -
18/09:30pm 11.1 S 6 9 1026.0 - 0.0 - - - - - - -
18/09:00pm 11.1 SSW 6 10 1026.0 - 0.0 - - - - - - -
18/08:30pm 11.1 SSW 5 8 1025.8 - 0.0 - - - - - - -
18/08:00pm 11.3 SSW 6 8 1025.7 - 0.0 - - - - - - -
18/07:30pm 11.1 SSW 5 8 1025.6 - 0.0 - - - - - - -
18/07:00pm 11.2 S 7 10 1025.4 - 0.0 - - - - - - -
18/06:30pm 11.4 SSW 7 11 1025.4 - 0.0 - - - - - - -
18/06:00pm 11.6 SSW 7 11 1025.4 - 0.0 - - - - - - -
18/05:30pm 12.0 SSW 7 11 1025.0 - 0.0 - - - - - - -
18/05:00pm 12.3 S 7 9 1024.8 - 0.0 - - - - - - -
18/04:30pm 12.9 SSW 9 13 1024.7 - 0.0 - - - - - - -
18/04:00pm 13.1 S 9 13 1024.6 - 0.0 - - - - - - -
18/03:30pm 12.5 S 11 15 1024.5 - 0.0 - - - - - - -
18/03:00pm 13.3 S 9 13 1024.5 - 0.0 - - - - - - -
18/02:30pm 13.4 SSW 9 13 1024.6 - 0.0 - - - - - - -
18/02:00pm 13.8 S 9 13 1024.5 - 0.0 - - - - - - -
18/01:30pm 13.1 SSW 11 17 1024.6 - 0.0 - - - - - - -
18/01:00pm 12.6 SSW 9 13 1024.6 - 0.0 - - - - - - -
18/12:30pm 13.4 SW 9 13 1024.8 - 0.0 - - - - - - -

Other Formats:

Comma delimited format used in spreadsheet applications
http://www.bom.gov.au/fwo/IDV60701/IDV60701.94830.axf

JavaScript Object Notation format (JSON) in row-major order
http://www.bom.gov.au/fwo/IDV60701/IDV60701.94830.json